Time;durP1;ratioP1;P1;durP2;ratioP2;P2;SDS_P1;SDS_P2;PMS_P1;PMS_P2;Temp;Humidity;BMP_temperature;BMP_pressure;BME280_temperature;BME280_humidity;BME280_pressure;Samples;Min_cycle;Max_cycle;Signal;HPM_P1;HPM_P2
2024/02/03 05:31:35;;;;;;;0.10;0.10;;;11.00;86.40;;;;;;6151946;23;20036;-81
2024/02/03 05:34:01;;;;;;;0.10;0.10;;;11.00;86.50;;;;;;6158368;23;20407;-83
2024/02/03 05:36:26;;;;;;;0.10;0.10;;;11.00;86.50;;;;;;6160689;23;20002;-83
2024/02/03 05:38:52;;;;;;;0.10;0.10;;;11.00;86.40;;;;;;6160691;23;20419;-81
2024/02/03 05:41:18;;;;;;;0.10;0.10;;;11.00;86.40;;;;;;6134455;23;20002;-81
2024/02/03 05:43:43;;;;;;;0.10;0.10;;;11.00;86.40;;;;;;6134108;23;20009;-83
2024/02/03 05:46:09;;;;;;;0.10;0.10;;;11.00;86.40;;;;;;6160854;23;20002;-81
2024/02/03 05:48:34;;;;;;;0.10;0.10;;;11.00;86.30;;;;;;6160464;23;20033;-81
2024/02/03 05:51:00;;;;;;;0.13;0.13;;;11.00;86.20;;;;;;6160467;23;20062;-84
2024/02/03 05:53:26;;;;;;;0.10;0.10;;;11.00;86.20;;;;;;6134427;23;20010;-81
2024/02/03 05:55:51;;;;;;;0.10;0.10;;;11.00;86.20;;;;;;6134591;23;20009;-83
2024/02/03 05:58:17;;;;;;;0.10;0.10;;;11.00;86.20;;;;;;6159799;23;20006;-81
2024/02/03 06:00:42;;;;;;;0.10;0.10;;;11.10;86.20;;;;;;6134607;23;20064;-82
2024/02/03 06:03:08;;;;;;;0.10;0.10;;;11.10;86.00;;;;;;6159272;23;20434;-82
2024/02/03 06:05:34;;;;;;;0.10;0.10;;;11.00;86.10;;;;;;6134740;23;20005;-82
2024/02/03 06:07:59;;;;;;;0.10;0.10;;;11.10;86.10;;;;;;6160516;23;20004;-81
2024/02/03 06:10:25;;;;;;;0.10;0.10;;;11.00;86.00;;;;;;6160638;23;20330;-81
2024/02/03 06:12:50;;;;;;;0.10;0.10;;;11.00;86.00;;;;;;6134076;23;20056;-82
2024/02/03 06:15:16;;;;;;;0.10;0.10;;;11.00;85.90;;;;;;6134534;23;19997;-82
2024/02/03 06:17:42;;;;;;;0.10;0.10;;;11.00;86.00;;;;;;6160617;23;20035;-81
2024/02/03 06:20:08;;;;;;;0.10;0.10;;;11.00;85.90;;;;;;6159727;23;20009;-81
2024/02/03 06:22:34;;;;;;;0.10;0.10;;;11.00;86.00;;;;;;6160325;23;20008;-82
2024/02/03 06:24:59;;;;;;;0.10;0.10;;;11.00;86.00;;;;;;6160293;23;20438;-81
2024/02/03 06:27:25;;;;;;;0.10;0.10;;;11.00;86.00;;;;;;6134308;23;20009;-81
2024/02/03 06:29:51;;;;;;;0.10;0.10;;;11.00;85.90;;;;;;6160456;23;20330;-81
2024/02/03 06:32:16;;;;;;;0.10;0.10;;;11.00;85.90;;;;;;6160162;23;20464;-81
2024/02/03 06:34:42;;;;;;;0.10;0.10;;;11.10;85.90;;;;;;6134540;23;20012;-81
2024/02/03 06:37:07;;;;;;;0.10;0.10;;;11.00;85.80;;;;;;6160411;23;20012;-81
2024/02/03 06:39:33;;;;;;;0.10;0.10;;;11.00;85.90;;;;;;6159662;23;20001;-81
2024/02/03 06:41:59;;;;;;;0.10;0.10;;;11.00;86.00;;;;;;6160678;23;20041;-81
2024/02/03 06:44:24;;;;;;;0.10;0.10;;;11.00;85.90;;;;;;6160139;23;20088;-81
2024/02/03 06:46:50;;;;;;;0.10;0.10;;;11.00;86.00;;;;;;6159989;23;19997;-82
2024/02/03 06:49:15;;;;;;;0.10;0.10;;;11.00;85.90;;;;;;6133665;23;20002;-82
2024/02/03 06:51:41;;;;;;;0.10;0.10;;;11.00;85.90;;;;;;6160278;23;20068;-82
2024/02/03 06:54:07;;;;;;;0.10;0.10;;;11.00;86.00;;;;;;6133856;23;20453;-82
2024/02/03 06:56:32;;;;;;;0.10;0.10;;;11.00;85.90;;;;;;6160267;23;20001;-82
2024/02/03 06:58:58;;;;;;;0.10;0.10;;;11.00;85.90;;;;;;6159657;23;20010;-82
2024/02/03 07:01:23;;;;;;;0.10;0.10;;;11.00;85.90;;;;;;6159724;23;20009;-82
2024/02/03 07:03:49;;;;;;;0.10;0.10;;;11.00;86.00;;;;;;6159988;23;20025;-82
2024/02/03 07:06:15;;;;;;;0.10;0.10;;;11.00;86.10;;;;;;6159560;23;20069;-82
2024/02/03 07:08:40;;;;;;;0.10;0.10;;;11.00;86.00;;;;;;6160102;23;20814;-81
2024/02/03 07:11:06;;;;;;;0.10;0.10;;;11.00;86.00;;;;;;6135571;23;20008;-81
2024/02/03 07:13:32;;;;;;;0.10;0.10;;;11.00;86.00;;;;;;6160845;23;20076;-81
2024/02/03 07:15:58;;;;;;;0.10;0.10;;;11.00;85.90;;;;;;6160336;23;20008;-81
2024/02/03 07:18:24;;;;;;;0.10;0.10;;;10.90;85.90;;;;;;6134967;23;20006;-83
2024/02/03 07:20:50;;;;;;;0.10;0.10;;;11.00;86.00;;;;;;6132440;23;20012;-79
2024/02/03 07:23:15;;;;;;;0.10;0.10;;;10.90;85.70;;;;;;6159422;23;20358;-82
2024/02/03 07:25:41;;;;;;;0.10;0.10;;;10.90;85.90;;;;;;6159293;23;20075;-83
2024/02/03 07:28:09;;;;;;;0.10;0.10;;;11.00;85.80;;;;;;6132969;23;20033;-83
2024/02/03 07:30:38;;;;;;;0.10;0.10;;;11.00;85.80;;;;;;6159291;23;20009;-84
2024/02/03 07:33:06;;;;;;;0.10;0.10;;;11.00;85.60;;;;;;6158927;23;20005;-84
2024/02/03 07:35:32;;;;;;;0.10;0.10;;;11.00;85.50;;;;;;6133477;23;20005;-77
2024/02/03 07:37:58;;;;;;;0.10;0.10;;;11.00;85.50;;;;;;6158236;23;20005;-77
2024/02/03 07:40:23;;;;;;;0.10;0.10;;;10.90;85.60;;;;;;6133190;23;20072;-79
2024/02/03 07:42:49;;;;;;;0.10;0.10;;;11.00;85.60;;;;;;6132779;23;20517;-83
2024/02/03 07:45:15;;;;;;;0.10;0.10;;;10.90;85.50;;;;;;6133442;23;20013;-81
2024/02/03 07:47:40;;;;;;;0.10;0.10;;;10.90;85.50;;;;;;6133228;23;20041;-79
2024/02/03 07:50:06;;;;;;;0.10;0.10;;;10.90;85.60;;;;;;6133329;23;20089;-80
2024/02/03 07:52:32;;;;;;;0.10;0.10;;;10.90;85.50;;;;;;6159557;23;20012;-78
2024/02/03 07:54:58;;;;;;;0.10;0.10;;;11.00;85.50;;;;;;6158815;23;20030;-79
2024/02/03 07:57:23;;;;;;;0.10;0.10;;;11.00;85.50;;;;;;6131888;23;20033;-76
2024/02/03 07:59:49;;;;;;;0.10;0.10;;;11.00;85.50;;;;;;6158293;23;20029;-75
2024/02/03 08:02:15;;;;;;;0.10;0.10;;;11.00;85.40;;;;;;6132759;23;20012;-75
2024/02/03 08:04:41;;;;;;;0.10;0.10;;;11.00;85.40;;;;;;6132345;23;20005;-75
2024/02/03 08:07:06;;;;;;;0.10;0.10;;;11.00;85.30;;;;;;6159330;23;20381;-75
2024/02/03 08:09:32;;;;;;;0.10;0.10;;;11.10;85.30;;;;;;6159037;23;20024;-75
2024/02/03 08:11:59;;;;;;;0.10;0.10;;;11.10;85.20;;;;;;6132844;23;20012;-74
2024/02/03 08:14:24;;;;;;;0.10;0.10;;;11.10;85.30;;;;;;6158912;23;20005;-75
2024/02/03 08:16:50;;;;;;;0.10;0.10;;;11.10;85.20;;;;;;6159135;23;20013;-75
2024/02/03 08:19:15;;;;;;;0.10;0.10;;;11.10;85.10;;;;;;6158718;23;20001;-75
2024/02/03 08:21:41;;;;;;;0.10;0.10;;;11.10;85.00;;;;;;6159088;23;20015;-75
2024/02/03 08:24:07;;;;;;;0.10;0.10;;;11.10;85.20;;;;;;6158710;23;20002;-75
2024/02/03 08:26:32;;;;;;;0.10;0.10;;;11.10;85.00;;;;;;6132411;23;20006;-75
2024/02/03 08:28:58;;;;;;;0.10;0.10;;;11.20;85.00;;;;;;6158765;23;20002;-77
2024/02/03 08:31:24;;;;;;;0.10;0.10;;;11.20;84.90;;;;;;6140203;23;20017;-76
2024/02/03 08:33:49;;;;;;;0.10;0.10;;;11.20;84.80;;;;;;6158818;23;20012;-76
2024/02/03 08:36:15;;;;;;;0.10;0.10;;;11.20;84.60;;;;;;6158358;23;20059;-76
2024/02/03 08:38:40;;;;;;;0.10;0.10;;;11.20;84.60;;;;;;6156977;23;20010;-75
2024/02/03 08:41:09;;;;;;;0.10;0.10;;;11.20;84.20;;;;;;6157605;23;20380;-76
2024/02/03 08:43:34;;;;;;;0.10;0.10;;;11.30;84.20;;;;;;6158165;23;20449;-76
2024/02/03 08:46:00;;;;;;;0.10;0.10;;;11.30;84.20;;;;;;6158630;23;20002;-76
2024/02/03 08:48:26;;;;;;;0.10;0.10;;;11.30;84.20;;;;;;6156549;23;20073;-76
2024/02/03 08:50:51;;;;;;;0.10;0.10;;;11.30;84.20;;;;;;6157455;23;20009;-76
2024/02/03 08:53:17;;;;;;;0.10;0.10;;;11.30;84.10;;;;;;6158820;23;20009;-76
2024/02/03 08:55:43;;;;;;;0.10;0.10;;;11.30;84.20;;;;;;6158006;23;20006;-76
2024/02/03 08:58:08;;;;;;;0.10;0.10;;;11.30;84.10;;;;;;6160844;23;20432;-76
2024/02/03 09:00:34;;;;;;;0.10;0.10;;;11.30;84.20;;;;;;6160181;23;20002;-76
2024/02/03 09:02:59;;;;;;;0.10;0.10;;;11.30;84.20;;;;;;6160871;23;20009;-76
2024/02/03 09:05:25;;;;;;;0.13;0.13;;;11.40;84.40;;;;;;6159869;23;20056;-75
2024/02/03 09:07:52;;;;;;;0.10;0.10;;;11.40;84.20;;;;;;6160755;23;20084;-76
2024/02/03 09:10:18;;;;;;;0.10;0.10;;;11.50;84.20;;;;;;6159380;23;20001;-76
2024/02/03 09:12:43;;;;;;;0.10;0.10;;;11.40;84.40;;;;;;6160268;23;20349;-75
2024/02/03 09:15:09;;;;;;;0.10;0.10;;;11.30;84.40;;;;;;6159121;23;20029;-76
2024/02/03 09:17:34;;;;;;;0.10;0.10;;;11.30;84.70;;;;;;6160313;23;20136;-75
2024/02/03 09:20:00;;;;;;;0.10;0.10;;;11.40;84.60;;;;;;6160159;23;21079;-76
2024/02/03 09:22:26;;;;;;;0.10;0.10;;;11.50;84.70;;;;;;6160063;23;20008;-76
2024/02/03 09:24:52;;;;;;;0.10;0.10;;;11.50;84.60;;;;;;6160001;23;20501;-75
2024/02/03 09:27:18;;;;;;;0.10;0.10;;;11.50;84.40;;;;;;6157922;23;20489;-75
2024/02/03 09:29:43;;;;;;;0.10;0.10;;;11.60;84.30;;;;;;6160690;23;19997;-76
2024/02/03 09:32:09;;;;;;;0.10;0.10;;;11.60;84.30;;;;;;6159359;23;20023;-75
2024/02/03 09:34:35;;;;;;;0.10;0.10;;;11.60;84.40;;;;;;6159653;23;20010;-77
2024/02/03 09:37:01;;;;;;;0.10;0.10;;;11.70;84.40;;;;;;6132294;23;20013;-76
2024/02/03 09:39:27;;;;;;;0.10;0.10;;;11.70;84.20;;;;;;6133392;23;20013;-76
2024/02/03 09:41:56;;;;;;;0.10;0.10;;;11.60;84.20;;;;;;6159835;23;20009;-76
2024/02/03 09:44:22;;;;;;;0.10;0.10;;;11.50;84.20;;;;;;6133586;23;20017;-76
2024/02/03 09:46:49;;;;;;;0.10;0.10;;;11.50;84.10;;;;;;6160489;23;20005;-76
2024/02/03 09:49:15;;;;;;;0.10;0.10;;;11.50;84.10;;;;;;6133623;23;20461;-76
2024/02/03 09:51:41;;;;;;;0.10;0.10;;;11.60;84.10;;;;;;6158791;23;20005;-76
2024/02/03 09:54:07;;;;;;;0.10;0.10;;;11.60;83.90;;;;;;6159488;23;20005;-76
2024/02/03 09:56:33;;;;;;;0.10;0.10;;;11.60;83.70;;;;;;6159885;23;20343;-76
2024/02/03 09:58:58;;;;;;;0.10;0.10;;;11.60;83.30;;;;;;6133380;23;20009;-76
2024/02/03 10:01:24;;;;;;;0.10;0.10;;;11.60;83.30;;;;;;6160140;23;20085;-76
2024/02/03 10:03:57;;;;;;;0.10;0.10;;;11.60;83.20;;;;;;6160316;23;20008;-76
2024/02/03 10:06:22;;;;;;;0.10;0.10;;;11.60;83.10;;;;;;6133608;23;20002;-75
2024/02/03 10:08:53;;;;;;;0.10;0.10;;;11.60;83.10;;;;;;6133285;23;20006;-76
2024/02/03 10:11:19;;;;;;;0.10;0.10;;;11.60;83.20;;;;;;6133816;23;20005;-76
2024/02/03 10:14:00;;;;;;;0.10;0.10;;;11.70;83.20;;;;;;6158635;23;20345;-75
2024/02/03 10:16:26;;;;;;;0.10;0.10;;;11.60;83.10;;;;;;6159952;23;20339;-76
2024/02/03 10:18:51;;;;;;;0.00;0.00;;;11.70;83.20;;;;;;6133049;23;20016;-76
2024/02/03 10:21:17;;;;;;;0.00;0.00;;;11.70;83.00;;;;;;6157166;23;20054;-76
2024/02/03 10:23:50;;;;;;;0.10;0.10;;;11.70;82.90;;;;;;6159715;23;20001;-76
2024/02/03 10:26:16;;;;;;;0.10;0.10;;;11.70;83.10;;;;;;6158894;23;20033;-76
2024/02/03 10:28:43;;;;;;;0.10;0.10;;;11.70;83.10;;;;;;6159612;23;20056;-76
2024/02/03 10:31:08;;;;;;;0.10;0.10;;;11.70;83.10;;;;;;6159376;23;20339;-76
2024/02/03 10:33:34;;;;;;;0.10;0.10;;;11.70;83.00;;;;;;6159376;23;20044;-75
2024/02/03 10:36:01;;;;;;;0.10;0.10;;;11.70;82.90;;;;;;6159124;23;20013;-76
2024/02/03 10:38:26;;;;;;;0.10;0.10;;;11.60;82.80;;;;;;6160193;23;20441;-75
2024/02/03 10:40:53;;;;;;;0.10;0.10;;;11.60;82.70;;;;;;6158923;23;20041;-76
2024/02/03 10:43:20;;;;;;;0.10;0.10;;;11.70;82.90;;;;;;6159604;23;20027;-76
2024/02/03 10:45:54;;;;;;;0.10;0.10;;;11.70;82.60;;;;;;6159410;23;20343;-77
2024/02/03 10:48:21;;;;;;;0.10;0.10;;;11.70;82.60;;;;;;6132954;23;20460;-75
2024/02/03 10:50:51;;;;;;;0.10;0.10;;;11.70;82.60;;;;;;6159367;23;19998;-75
2024/02/03 10:53:40;;;;;;;0.10;0.10;;;11.70;82.40;;;;;;6159182;23;20323;-75
2024/02/03 10:56:11;;;;;;;0.10;0.10;;;11.70;82.50;;;;;;6158548;23;20453;-75
2024/02/03 10:58:42;;;;;;;0.10;0.10;;;11.80;82.10;;;;;;6133091;23;20006;-79
2024/02/03 11:01:21;;;;;;;0.10;0.10;;;11.90;82.20;;;;;;6159239;23;20438;-76
2024/02/03 11:03:51;;;;;;;0.10;0.10;;;11.90;82.00;;;;;;6157930;23;20033;-77
2024/02/03 11:06:49;;;;;;;0.10;0.10;;;12.00;82.10;;;;;;6131981;23;20056;-76
2024/02/03 11:09:20;;;;;;;0.10;0.10;;;12.10;81.50;;;;;;6132280;23;20015;-77
2024/02/03 11:11:54;;;;;;;0.10;0.10;;;12.20;81.70;;;;;;6159268;23;20426;-75
2024/02/03 11:14:23;;;;;;;0.10;0.10;;;12.20;81.50;;;;;;6158574;23;20077;-76
2024/02/03 11:17:04;;;;;;;0.10;0.10;;;12.20;81.00;;;;;;6158860;23;20005;-74
2024/02/03 11:19:35;;;;;;;0.10;0.10;;;12.30;80.80;;;;;;6158470;23;20009;-81
2024/02/03 11:22:03;;;;;;;0.10;0.10;;;12.40;80.60;;;;;;6131491;23;20503;-75
2024/02/03 11:24:30;;;;;;;0.10;0.10;;;12.40;80.40;;;;;;6155638;23;20001;-76
2024/02/03 11:27:07;;;;;;;0.10;0.10;;;12.50;79.90;;;;;;6148247;23;20001;-75
2024/02/03 11:29:33;;;;;;;0.10;0.10;;;12.50;79.80;;;;;;6158055;23;19998;-75
2024/02/03 11:32:07;;;;;;;0.10;0.10;;;12.30;79.10;;;;;;6157877;23;20022;-75
2024/02/03 11:34:35;;;;;;;0.10;0.10;;;12.30;79.50;;;;;;6157881;23;20031;-75
2024/02/03 11:37:00;;;;;;;0.10;0.10;;;12.30;79.60;;;;;;6163355;23;20040;-77
2024/02/03 11:39:37;;;;;;;0.10;0.10;;;12.20;78.90;;;;;;6159170;23;20002;-74
2024/02/03 11:42:05;;;;;;;0.10;0.10;;;12.20;78.90;;;;;;6157008;23;20002;-77
2024/02/03 11:44:37;;;;;;;0.10;0.10;;;12.20;79.30;;;;;;6130939;23;20013;-82
2024/02/03 11:47:06;;;;;;;0.10;0.10;;;12.30;79.30;;;;;;6130753;23;20061;-75
2024/02/03 11:49:32;;;;;;;0.10;0.10;;;12.30;78.30;;;;;;6159155;23;19997;-76
2024/02/03 11:52:02;;;;;;;0.10;0.10;;;12.30;78.90;;;;;;6162715;23;20025;-75
2024/02/03 11:54:28;;;;;;;0.10;0.10;;;12.30;78.40;;;;;;6158460;23;20430;-77
2024/02/03 11:56:56;;;;;;;0.10;0.10;;;12.30;78.50;;;;;;6158294;23;20009;-75
2024/02/03 11:59:29;;;;;;;0.03;0.03;;;12.20;79.00;;;;;;6128742;23;20017;-76
2024/02/03 12:01:56;;;;;;;0.10;0.10;;;12.30;79.10;;;;;;6155815;23;20016;-76
2024/02/03 12:04:23;;;;;;;0.10;0.10;;;12.30;79.20;;;;;;6158369;23;20389;-77
2024/02/03 12:06:49;;;;;;;0.10;0.10;;;12.30;79.10;;;;;;6154965;23;19998;-77
2024/02/03 12:09:18;;;;;;;0.10;0.10;;;12.30;78.80;;;;;;6158913;23;20002;-75
2024/02/03 12:11:49;;;;;;;0.10;0.10;;;12.20;78.70;;;;;;6155127;23;20059;-74
2024/02/03 12:14:15;;;;;;;0.05;0.05;;;12.20;78.70;;;;;;6128795;23;20006;-76
2024/02/03 12:16:42;;;;;;;0.10;0.10;;;12.20;78.80;;;;;;6158199;23;20001;-75
2024/02/03 12:19:09;;;;;;;0.10;0.10;;;12.20;78.60;;;;;;6129430;23;20013;-76
2024/02/03 12:21:35;;;;;;;0.10;0.10;;;12.10;78.60;;;;;;6158966;23;20013;-76
2024/02/03 12:24:00;;;;;;;0.10;0.10;;;12.20;78.50;;;;;;6155583;23;20024;-77
2024/02/03 12:26:27;;;;;;;0.10;0.10;;;12.20;78.80;;;;;;6128920;23;20001;-77
2024/02/03 12:28:53;;;;;;;0.10;0.10;;;12.20;78.70;;;;;;6154939;23;20442;-78
2024/02/03 12:31:19;;;;;;;0.10;0.10;;;12.10;78.70;;;;;;6133271;23;20024;-76
2024/02/03 12:33:44;;;;;;;0.10;0.10;;;12.10;79.20;;;;;;6147288;23;20013;-75
2024/02/03 12:36:12;;;;;;;0.10;0.10;;;12.20;79.20;;;;;;6153509;23;20037;-75
2024/02/03 12:38:39;;;;;;;0.10;0.10;;;12.20;79.20;;;;;;6154029;23;20064;-76
2024/02/03 12:41:04;;;;;;;0.10;0.10;;;12.30;79.30;;;;;;6153767;23;20013;-78
2024/02/03 12:43:30;;;;;;;0.10;0.10;;;12.20;78.70;;;;;;6153547;23;20036;-75
2024/02/03 12:45:55;;;;;;;0.10;0.10;;;12.20;78.90;;;;;;6155753;23;20060;-75
2024/02/03 12:48:21;;;;;;;0.10;0.10;;;12.20;79.00;;;;;;6152030;23;20006;-74
2024/02/03 12:50:49;;;;;;;0.10;0.10;;;12.10;79.00;;;;;;6157169;23;20338;-75
2024/02/03 12:53:15;;;;;;;0.10;0.10;;;12.10;79.40;;;;;;6152221;23;20001;-74
2024/02/03 12:55:40;;;;;;;0.10;0.10;;;12.10;79.30;;;;;;6157127;23;20002;-74
2024/02/03 12:58:06;;;;;;;0.10;0.10;;;12.10;79.30;;;;;;6153137;23;20012;-74
2024/02/03 13:00:32;;;;;;;0.10;0.10;;;12.20;79.30;;;;;;6154300;23;20007;-75
2024/02/03 13:02:59;;;;;;;0.10;0.10;;;12.30;79.50;;;;;;6155760;23;20016;-74
2024/02/03 13:05:24;;;;;;;0.10;0.10;;;12.30;79.10;;;;;;6153042;23;20005;-76
2024/02/03 13:07:51;;;;;;;0.10;0.10;;;12.30;79.30;;;;;;6152260;23;20100;-76
2024/02/03 13:10:17;;;;;;;0.10;0.10;;;12.30;78.90;;;;;;6150907;23;20061;-77
2024/02/03 13:12:42;;;;;;;0.10;0.10;;;12.40;79.10;;;;;;6157423;23;20326;-76
2024/02/03 13:15:11;;;;;;;0.10;0.10;;;12.40;79.40;;;;;;6152995;23;20068;-76
2024/02/03 13:17:37;;;;;;;0.08;0.08;;;12.50;79.20;;;;;;6153474;23;20446;-78
2024/02/03 13:20:03;;;;;;;0.10;0.10;;;12.60;79.30;;;;;;6156468;23;20048;-75
2024/02/03 13:22:29;;;;;;;0.10;0.10;;;12.60;79.20;;;;;;6149550;23;19997;-76
2024/02/03 13:24:55;;;;;;;0.10;0.10;;;12.70;79.40;;;;;;6156980;23;20018;-76
2024/02/03 13:27:20;;;;;;;0.10;0.10;;;12.80;79.00;;;;;;6155032;23;20067;-76
2024/02/03 13:29:46;;;;;;;0.10;0.10;;;12.80;78.40;;;;;;6153212;23;20036;-76
2024/02/03 13:32:15;;;;;;;0.10;0.10;;;12.90;78.40;;;;;;6154612;23;20021;-76
2024/02/03 13:34:42;;;;;;;0.10;0.10;;;12.90;77.80;;;;;;6154770;23;20009;-77
2024/02/03 13:37:08;;;;;;;0.10;0.10;;;12.90;77.70;;;;;;6156431;23;20005;-78
2024/02/03 13:39:35;;;;;;;0.10;0.10;;;12.80;77.90;;;;;;6157015;23;20006;-76
2024/02/03 13:42:01;;;;;;;0.10;0.10;;;12.80;78.00;;;;;;6154690;23;20012;-76
2024/02/03 13:44:27;;;;;;;0.00;0.00;;;12.80;78.50;;;;;;6158525;23;20006;-76
2024/02/03 13:46:52;;;;;;;0.00;0.00;;;12.70;78.70;;;;;;6159154;23;20001;-76
2024/02/03 13:49:18;;;;;;;0.10;0.10;;;12.60;78.80;;;;;;6158998;23;19997;-76
2024/02/03 13:51:44;;;;;;;0.10;0.10;;;12.60;78.70;;;;;;6152996;23;20044;-76
2024/02/03 13:54:12;;;;;;;0.00;0.00;;;12.50;79.20;;;;;;6158066;23;20029;-76
2024/02/03 13:56:38;;;;;;;0.10;0.10;;;12.50;79.20;;;;;;6157638;23;20037;-76
2024/02/03 13:59:03;;;;;;;0.10;0.10;;;12.40;79.30;;;;;;6156662;23;20001;-76
2024/02/03 14:01:29;;;;;;;0.10;0.10;;;12.50;79.40;;;;;;6155372;23;20029;-76
2024/02/03 14:03:55;;;;;;;0.00;0.00;;;12.40;79.60;;;;;;6158921;23;20045;-76
2024/02/03 14:06:22;;;;;;;0.10;0.10;;;12.40;79.90;;;;;;6155658;23;20077;-76
2024/02/03 14:08:48;;;;;;;0.00;0.00;;;12.40;80.10;;;;;;6158821;23;20010;-76
2024/02/03 14:11:14;;;;;;;0.10;0.10;;;12.40;80.20;;;;;;6157595;23;20002;-78
2024/02/03 14:13:41;;;;;;;0.10;0.10;;;12.40;80.40;;;;;;6156531;23;20128;-77
2024/02/03 14:16:07;;;;;;;0.10;0.10;;;12.40;80.40;;;;;;6157518;23;20006;-77
2024/02/03 14:18:32;;;;;;;0.10;0.10;;;12.40;80.30;;;;;;6154321;23;20771;-78
2024/02/03 14:20:58;;;;;;;0.10;0.10;;;12.40;80.40;;;;;;6158967;23;20343;-77
2024/02/03 14:23:24;;;;;;;0.00;0.00;;;12.30;80.30;;;;;;6152341;23;20055;-77
2024/02/03 14:25:50;;;;;;;0.10;0.10;;;12.40;80.40;;;;;;6158763;23;19997;-77
2024/02/03 14:28:15;;;;;;;0.10;0.10;;;12.40;80.50;;;;;;6158142;23;20012;-77
2024/02/03 14:30:41;;;;;;;0.10;0.10;;;12.40;80.40;;;;;;6157909;23;20024;-77
2024/02/03 14:33:07;;;;;;;0.10;0.10;;;12.50;80.40;;;;;;6132529;23;20048;-77
2024/02/03 14:35:32;;;;;;;0.08;0.08;;;12.60;80.30;;;;;;6158669;23;20036;-77
2024/02/03 14:37:58;;;;;;;0.10;0.10;;;12.60;80.30;;;;;;6157943;23;20037;-78
2024/02/03 14:40:24;;;;;;;0.10;0.10;;;12.60;80.30;;;;;;6156585;23;20010;-78
2024/02/03 14:42:49;;;;;;;0.10;0.10;;;12.70;80.40;;;;;;6128403;23;20021;-78
2024/02/03 14:45:15;;;;;;;0.10;0.10;;;12.70;80.20;;;;;;6155229;23;20009;-78
2024/02/03 14:47:41;;;;;;;0.10;0.10;;;12.70;79.90;;;;;;6157169;23;20035;-77
2024/02/03 14:50:08;;;;;;;0.10;0.10;;;12.80;80.00;;;;;;6153548;23;20005;-78
2024/02/03 14:52:35;;;;;;;0.00;0.00;;;12.70;79.90;;;;;;6156863;23;20144;-77
2024/02/03 14:55:01;;;;;;;0.10;0.10;;;12.70;80.10;;;;;;6157757;23;20083;-78
2024/02/03 14:57:27;;;;;;;0.10;0.10;;;12.70;80.10;;;;;;6157315;23;19998;-78
2024/02/03 14:59:53;;;;;;;0.10;0.10;;;12.60;79.70;;;;;;6150227;23;20009;-78
2024/02/03 15:02:18;;;;;;;0.10;0.10;;;12.50;79.80;;;;;;6127723;23;20009;-78
2024/02/03 15:04:44;;;;;;;0.10;0.10;;;12.50;80.00;;;;;;6157921;23;20009;-78
2024/02/03 15:07:17;;;;;;;0.10;0.10;;;12.60;80.10;;;;;;6154844;23;20703;-77
2024/02/03 15:09:43;;;;;;;;;;;12.50;79.80;;;;;;6158569;23;20001;-77
2024/02/03 15:12:09;;;;;;;0.10;0.10;;;12.50;80.00;;;;;;6131718;23;19932;-76
2024/02/03 15:14:34;;;;;;;0.10;0.10;;;12.60;79.80;;;;;;6158361;23;20025;-77
2024/02/03 15:17:00;;;;;;;0.10;0.10;;;12.50;79.80;;;;;;6155536;23;20005;-76
2024/02/03 15:19:25;;;;;;;0.10;0.10;;;12.50;80.00;;;;;;6156881;23;20011;-76
2024/02/03 15:21:52;;;;;;;0.10;0.10;;;12.50;79.90;;;;;;6156778;23;20005;-77
2024/02/03 15:24:18;;;;;;;0.10;0.10;;;12.50;80.00;;;;;;6131692;23;20012;-76
2024/02/03 15:26:43;;;;;;;0.10;0.10;;;12.50;79.90;;;;;;6131360;23;20430;-76
2024/02/03 15:29:09;;;;;;;0.10;0.10;;;12.50;79.80;;;;;;6152791;23;20002;-76
2024/02/03 15:31:35;;;;;;;0.03;0.03;;;12.40;79.80;;;;;;6153135;23;20049;-76
2024/02/03 15:34:01;;;;;;;0.03;0.03;;;12.40;79.70;;;;;;6127709;23;20013;-76
2024/02/03 15:36:27;;;;;;;0.10;0.10;;;12.40;79.80;;;;;;6131890;23;20020;-76
2024/02/03 15:38:52;;;;;;;0.00;0.00;;;12.40;79.80;;;;;;6128098;23;20009;-76
2024/02/03 15:41:18;;;;;;;0.10;0.10;;;12.40;79.90;;;;;;6153893;23;20011;-76
2024/02/03 15:43:44;;;;;;;0.10;0.10;;;12.40;79.90;;;;;;6127268;23;20037;-76
2024/02/03 15:46:09;;;;;;;0.10;0.10;;;12.40;79.90;;;;;;6153293;23;20001;-76
2024/02/03 15:48:36;;;;;;;0.10;0.10;;;12.40;79.70;;;;;;6158159;23;20049;-76
2024/02/03 15:51:01;;;;;;;0.10;0.10;;;12.40;79.70;;;;;;6119894;23;20012;-76
2024/02/03 15:53:27;;;;;;;0.10;0.10;;;12.40;79.70;;;;;;6152775;23;20006;-76
2024/02/03 15:55:53;;;;;;;0.10;0.10;;;12.30;79.60;;;;;;6153528;23;20002;-76
2024/02/03 15:58:19;;;;;;;0.10;0.10;;;12.30;79.60;;;;;;6153874;23;20065;-76
2024/02/03 16:00:44;;;;;;;0.10;0.10;;;12.30;79.80;;;;;;6156062;23;20021;-76
2024/02/03 16:03:10;;;;;;;0.00;0.00;;;12.30;79.60;;;;;;6125765;23;20013;-77
2024/02/03 16:05:36;;;;;;;0.10;0.10;;;12.20;79.60;;;;;;6152763;23;20024;-77
2024/02/03 16:08:01;;;;;;;0.10;0.10;;;12.20;79.40;;;;;;6152170;23;19997;-76
2024/02/03 16:10:27;;;;;;;0.10;0.10;;;12.20;79.50;;;;;;6126600;23;20040;-76
2024/02/03 16:12:53;;;;;;;0.10;0.10;;;12.10;79.40;;;;;;6155590;23;20378;-84
2024/02/03 16:15:18;;;;;;;0.10;0.10;;;12.10;79.40;;;;;;6126377;23;20017;-77
2024/02/03 16:17:44;;;;;;;0.10;0.10;;;12.10;79.30;;;;;;6154503;23;20751;-75
2024/02/03 16:20:10;;;;;;;0.10;0.10;;;12.20;79.40;;;;;;6157582;23;20010;-77
2024/02/03 16:22:35;;;;;;;0.10;0.10;;;12.20;79.60;;;;;;6152855;23;20008;-76
2024/02/03 16:25:01;;;;;;;0.10;0.10;;;12.10;79.50;;;;;;6157694;23;20006;-76
2024/02/03 16:27:28;;;;;;;0.10;0.10;;;12.10;79.70;;;;;;6153405;23;20008;-76
2024/02/03 16:29:53;;;;;;;0.03;0.03;;;12.00;79.70;;;;;;6153723;23;20509;-83
2024/02/03 16:32:19;;;;;;;0.10;0.10;;;12.00;79.80;;;;;;6152473;23;20091;-77
2024/02/03 16:34:44;;;;;;;0.10;0.10;;;12.10;79.90;;;;;;6126015;23;20044;-78
2024/02/03 16:37:10;;;;;;;0.10;0.10;;;12.10;79.70;;;;;;6152450;23;20060;-79
2024/02/03 16:39:36;;;;;;;0.10;0.10;;;12.10;79.70;;;;;;6126366;23;20025;-78
2024/02/03 16:42:01;;;;;;;0.10;0.10;;;12.00;79.80;;;;;;6147651;23;20005;-81
2024/02/03 16:44:27;;;;;;;0.10;0.10;;;12.00;79.90;;;;;;6148245;23;20016;-79
2024/02/03 16:46:52;;;;;;;0.00;0.00;;;12.00;79.80;;;;;;6153579;23;20002;-78
2024/02/03 16:49:20;;;;;;;0.10;0.10;;;12.00;79.80;;;;;;6105733;23;20080;-77
2024/02/03 16:51:45;;;;;;;0.10;0.10;;;12.00;79.90;;;;;;6156065;23;20460;-77
2024/02/03 16:54:14;;;;;;;0.10;0.10;;;11.90;80.10;;;;;;6153493;23;20080;-89
2024/02/03 16:56:40;;;;;;;0.10;0.10;;;11.90;80.00;;;;;;6152425;23;20009;-79
2024/02/03 16:59:08;;;;;;;0.10;0.10;;;11.90;80.20;;;;;;6150694;23;20038;-83
2024/02/03 17:01:34;;;;;;;0.10;0.10;;;12.00;80.20;;;;;;6123604;23;20441;-78
2024/02/03 17:04:01;;;;;;;0.00;0.00;;;11.90;80.00;;;;;;6147562;23;20009;-78
2024/02/03 17:06:33;;;;;;;0.10;0.10;;;11.90;80.30;;;;;;6119605;23;20599;-78
2024/02/03 17:08:59;;;;;;;0.00;0.00;;;11.90;80.20;;;;;;6122171;23;20493;-77
2024/02/03 17:11:25;;;;;;;0.10;0.10;;;11.90;80.30;;;;;;6154516;23;20402;-76
2024/02/03 17:13:50;;;;;;;0.10;0.10;;;11.90;80.30;;;;;;6153552;23;20493;-76
2024/02/03 17:16:19;;;;;;;0.10;0.10;;;11.80;80.40;;;;;;6117352;23;20097;-75
2024/02/03 17:18:47;;;;;;;0.10;0.10;;;11.80;80.80;;;;;;6152716;23;20430;-77
2024/02/03 17:21:13;;;;;;;0.10;0.10;;;11.80;80.50;;;;;;6151310;23;20012;-77
2024/02/03 17:23:38;;;;;;;0.10;0.10;;;11.80;80.60;;;;;;6156122;23;20791;-77
2024/02/03 17:26:04;;;;;;;0.10;0.10;;;11.70;81.00;;;;;;6154359;23;20458;-79
2024/02/03 17:28:30;;;;;;;0.10;0.10;;;11.70;80.90;;;;;;6128485;23;20006;-77
2024/02/03 17:31:13;;;;;;;0.10;0.10;;;11.70;81.10;;;;;;6155269;23;20065;-79
2024/02/03 17:33:39;;;;;;;0.10;0.10;;;11.70;81.00;;;;;;6153937;23;20497;-77
2024/02/03 17:36:05;;;;;;;0.10;0.10;;;11.80;80.90;;;;;;6155113;23;20061;-76
2024/02/03 17:38:39;;;;;;;0.10;0.10;;;11.80;80.70;;;;;;6132746;23;20036;-77
2024/02/03 17:41:05;;;;;;;0.10;0.10;;;11.80;80.80;;;;;;6128851;23;20417;-77
2024/02/03 17:44:01;;;;;;;0.10;0.10;;;11.80;80.70;;;;;;6133789;23;20016;-74
2024/02/03 17:46:27;;;;;;;0.10;0.10;;;11.80;80.80;;;;;;6127566;23;20012;-79
2024/02/03 17:48:52;;;;;;;0.00;0.00;;;11.80;80.70;;;;;;6126823;23;20002;-77
2024/02/03 17:51:20;;;;;;;0.10;0.10;;;11.80;80.90;;;;;;6151483;23;20001;-77
2024/02/03 17:53:46;;;;;;;0.10;0.10;;;11.80;80.80;;;;;;6125844;23;20005;-77
2024/02/03 17:56:14;;;;;;;0.10;0.10;;;11.70;80.80;;;;;;6155156;23;20494;-77
2024/02/03 17:58:42;;;;;;;0.10;0.10;;;11.70;80.80;;;;;;6128144;23;20013;-76
2024/02/03 18:01:10;;;;;;;0.10;0.10;;;11.80;80.70;;;;;;6124532;23;20010;-76
2024/02/03 18:03:38;;;;;;;0.10;0.10;;;11.70;80.70;;;;;;6149658;23;20009;-76
2024/02/03 18:06:04;;;;;;;0.10;0.10;;;11.70;80.90;;;;;;6128951;23;20055;-76
2024/02/03 18:08:30;;;;;;;0.10;0.10;;;11.70;80.80;;;;;;6158183;23;20002;-76
2024/02/03 18:10:56;;;;;;;0.10;0.10;;;11.60;80.70;;;;;;6158082;23;20016;-75
2024/02/03 18:13:22;;;;;;;0.10;0.10;;;11.60;80.90;;;;;;6158650;23;20017;-76
2024/02/03 18:15:47;;;;;;;0.10;0.10;;;11.50;81.10;;;;;;6155696;23;20449;-75